sensor_id;sensor_type;location;lat;lon;timestamp;P1;durP1;ratioP1;P2;durP2;ratioP2
58615;SDS011;44385;51.992;4.206;2022-09-21T00:01:24;12.10;;;5.85;;
58615;SDS011;44385;51.992;4.206;2022-09-21T00:03:51;12.75;;;5.75;;
58615;SDS011;44385;51.992;4.206;2022-09-21T00:06:18;7.50;;;4.78;;
58615;SDS011;44385;51.992;4.206;2022-09-21T00:08:45;9.88;;;5.60;;
58615;SDS011;44385;51.992;4.206;2022-09-21T00:11:12;10.68;;;5.25;;
58615;SDS011;44385;51.992;4.206;2022-09-21T00:13:39;9.43;;;5.65;;
58615;SDS011;44385;51.992;4.206;2022-09-21T00:16:08;7.80;;;5.03;;
58615;SDS011;44385;51.992;4.206;2022-09-21T00:18:34;7.93;;;4.60;;
58615;SDS011;44385;51.992;4.206;2022-09-21T00:21:01;11.68;;;5.30;;
58615;SDS011;44385;51.992;4.206;2022-09-21T00:23:32;12.55;;;5.15;;
58615;SDS011;44385;51.992;4.206;2022-09-21T00:26:03;11.63;;;5.05;;
58615;SDS011;44385;51.992;4.206;2022-09-21T00:28:29;6.03;;;3.85;;
58615;SDS011;44385;51.992;4.206;2022-09-21T00:30:59;6.43;;;3.97;;
58615;SDS011;44385;51.992;4.206;2022-09-21T00:36:01;9.13;;;4.35;;
58615;SDS011;44385;51.992;4.206;2022-09-21T00:38:28;6.88;;;3.95;;
58615;SDS011;44385;51.992;4.206;2022-09-21T00:40:55;9.18;;;4.00;;
58615;SDS011;44385;51.992;4.206;2022-09-21T00:43:21;6.15;;;3.90;;
58615;SDS011;44385;51.992;4.206;2022-09-21T00:45:47;10.30;;;5.18;;
58615;SDS011;44385;51.992;4.206;2022-09-21T00:48:15;8.27;;;4.82;;
58615;SDS011;44385;51.992;4.206;2022-09-21T00:50:43;6.30;;;4.05;;
58615;SDS011;44385;51.992;4.206;2022-09-21T00:53:13;6.60;;;4.25;;
58615;SDS011;44385;51.992;4.206;2022-09-21T00:55:40;7.07;;;4.47;;
58615;SDS011;44385;51.992;4.206;2022-09-21T00:58:08;12.13;;;4.07;;
58615;SDS011;44385;51.992;4.206;2022-09-21T01:00:37;7.82;;;4.25;;
58615;SDS011;44385;51.992;4.206;2022-09-21T01:03:04;10.02;;;4.00;;
58615;SDS011;44385;51.992;4.206;2022-09-21T01:05:34;9.02;;;4.53;;
58615;SDS011;44385;51.992;4.206;2022-09-21T01:08:01;10.60;;;4.60;;
58615;SDS011;44385;51.992;4.206;2022-09-21T01:10:31;7.90;;;4.13;;
58615;SDS011;44385;51.992;4.206;2022-09-21T01:13:03;12.80;;;4.85;;
58615;SDS011;44385;51.992;4.206;2022-09-21T01:15:34;10.00;;;3.72;;
58615;SDS011;44385;51.992;4.206;2022-09-21T01:18:04;8.65;;;4.03;;
58615;SDS011;44385;51.992;4.206;2022-09-21T01:26:19;6.47;;;3.65;;
58615;SDS011;44385;51.992;4.206;2022-09-21T01:29:02;5.93;;;3.30;;
58615;SDS011;44385;51.992;4.206;2022-09-21T01:31:33;7.22;;;3.45;;
58615;SDS011;44385;51.992;4.206;2022-09-21T01:34:04;5.05;;;3.17;;
58615;SDS011;44385;51.992;4.206;2022-09-21T01:36:32;8.88;;;3.45;;
58615;SDS011;44385;51.992;4.206;2022-09-21T01:39:04;6.93;;;3.42;;
58615;SDS011;44385;51.992;4.206;2022-09-21T01:41:32;10.25;;;3.70;;
58615;SDS011;44385;51.992;4.206;2022-09-21T01:44:04;15.20;;;4.95;;
58615;SDS011;44385;51.992;4.206;2022-09-21T01:46:32;15.50;;;4.22;;
58615;SDS011;44385;51.992;4.206;2022-09-21T01:49:03;11.77;;;4.38;;
58615;SDS011;44385;51.992;4.206;2022-09-21T01:51:32;9.38;;;4.25;;
58615;SDS011;44385;51.992;4.206;2022-09-21T01:54:00;9.65;;;3.85;;
58615;SDS011;44385;51.992;4.206;2022-09-21T01:56:32;8.40;;;4.38;;
58615;SDS011;44385;51.992;4.206;2022-09-21T01:59:02;4.30;;;3.15;;
58615;SDS011;44385;51.992;4.206;2022-09-21T02:01:34;9.23;;;4.07;;
58615;SDS011;44385;51.992;4.206;2022-09-21T02:04:03;6.63;;;3.17;;
58615;SDS011;44385;51.992;4.206;2022-09-21T02:06:33;6.10;;;3.30;;
58615;SDS011;44385;51.992;4.206;2022-09-21T02:09:00;8.82;;;2.80;;
58615;SDS011;44385;51.992;4.206;2022-09-21T02:11:26;6.72;;;2.85;;
58615;SDS011;44385;51.992;4.206;2022-09-21T02:13:53;7.18;;;2.75;;
58615;SDS011;44385;51.992;4.206;2022-09-21T02:16:29;6.18;;;2.30;;
58615;SDS011;44385;51.992;4.206;2022-09-21T02:19:03;7.07;;;3.00;;
58615;SDS011;44385;51.992;4.206;2022-09-21T02:21:37;6.45;;;3.42;;
58615;SDS011;44385;51.992;4.206;2022-09-21T02:24:07;6.50;;;3.22;;
58615;SDS011;44385;51.992;4.206;2022-09-21T02:26:35;6.72;;;3.50;;
58615;SDS011;44385;51.992;4.206;2022-09-21T02:29:06;5.22;;;3.35;;
58615;SDS011;44385;51.992;4.206;2022-09-21T02:31:36;4.88;;;2.88;;
58615;SDS011;44385;51.992;4.206;2022-09-21T02:34:07;6.03;;;3.58;;
58615;SDS011;44385;51.992;4.206;2022-09-21T02:36:37;5.28;;;3.35;;
58615;SDS011;44385;51.992;4.206;2022-09-21T02:39:08;6.32;;;3.10;;
58615;SDS011;44385;51.992;4.206;2022-09-21T02:41:36;9.73;;;3.30;;
58615;SDS011;44385;51.992;4.206;2022-09-21T02:46:35;5.45;;;3.03;;
58615;SDS011;44385;51.992;4.206;2022-09-21T02:49:03;3.65;;;2.60;;
58615;SDS011;44385;51.992;4.206;2022-09-21T02:51:38;5.10;;;3.10;;
58615;SDS011;44385;51.992;4.206;2022-09-21T02:54:06;5.78;;;2.72;;
58615;SDS011;44385;51.992;4.206;2022-09-21T02:56:34;8.63;;;2.88;;
58615;SDS011;44385;51.992;4.206;2022-09-21T02:59:02;6.47;;;2.80;;
58615;SDS011;44385;51.992;4.206;2022-09-21T03:01:32;10.23;;;3.00;;
58615;SDS011;44385;51.992;4.206;2022-09-21T03:03:59;8.80;;;3.30;;
58615;SDS011;44385;51.992;4.206;2022-09-21T03:06:26;5.40;;;2.25;;
58615;SDS011;44385;51.992;4.206;2022-09-21T03:08:54;8.88;;;3.20;;
58615;SDS011;44385;51.992;4.206;2022-09-21T03:11:21;7.15;;;2.50;;
58615;SDS011;44385;51.992;4.206;2022-09-21T03:13:48;5.60;;;2.53;;
58615;SDS011;44385;51.992;4.206;2022-09-21T03:16:14;10.18;;;2.70;;
58615;SDS011;44385;51.992;4.206;2022-09-21T03:18:41;4.50;;;2.55;;
58615;SDS011;44385;51.992;4.206;2022-09-21T03:21:08;6.75;;;2.60;;
58615;SDS011;44385;51.992;4.206;2022-09-21T03:23:35;5.90;;;2.10;;
58615;SDS011;44385;51.992;4.206;2022-09-21T03:26:03;8.07;;;2.63;;
58615;SDS011;44385;51.992;4.206;2022-09-21T03:28:29;6.97;;;3.13;;
58615;SDS011;44385;51.992;4.206;2022-09-21T03:30:56;6.80;;;2.78;;
58615;SDS011;44385;51.992;4.206;2022-09-21T03:33:23;13.57;;;3.03;;
58615;SDS011;44385;51.992;4.206;2022-09-21T03:35:50;6.63;;;3.10;;
58615;SDS011;44385;51.992;4.206;2022-09-21T03:38:17;5.88;;;2.50;;
58615;SDS011;44385;51.992;4.206;2022-09-21T03:40:43;7.47;;;3.00;;
58615;SDS011;44385;51.992;4.206;2022-09-21T03:43:11;8.25;;;2.63;;
58615;SDS011;44385;51.992;4.206;2022-09-21T03:45:37;6.28;;;2.45;;
58615;SDS011;44385;51.992;4.206;2022-09-21T03:48:07;3.67;;;2.10;;
58615;SDS011;44385;51.992;4.206;2022-09-21T03:50:33;7.38;;;2.85;;
58615;SDS011;44385;51.992;4.206;2022-09-21T03:52:59;8.25;;;3.20;;
58615;SDS011;44385;51.992;4.206;2022-09-21T03:55:26;9.95;;;3.22;;
58615;SDS011;44385;51.992;4.206;2022-09-21T03:57:54;7.95;;;3.30;;
58615;SDS011;44385;51.992;4.206;2022-09-21T04:00:21;10.27;;;3.25;;
58615;SDS011;44385;51.992;4.206;2022-09-21T04:02:48;10.77;;;3.50;;
58615;SDS011;44385;51.992;4.206;2022-09-21T04:05:15;5.68;;;2.70;;
58615;SDS011;44385;51.992;4.206;2022-09-21T04:07:41;9.63;;;3.63;;
58615;SDS011;44385;51.992;4.206;2022-09-21T04:10:10;7.88;;;2.88;;
58615;SDS011;44385;51.992;4.206;2022-09-21T04:12:37;6.35;;;3.13;;
58615;SDS011;44385;51.992;4.206;2022-09-21T04:15:06;9.23;;;2.80;;
58615;SDS011;44385;51.992;4.206;2022-09-21T04:17:37;8.75;;;3.50;;
58615;SDS011;44385;51.992;4.206;2022-09-21T04:20:04;9.38;;;3.25;;
58615;SDS011;44385;51.992;4.206;2022-09-21T04:22:31;8.30;;;3.33;;
58615;SDS011;44385;51.992;4.206;2022-09-21T04:24:57;5.45;;;2.90;;
58615;SDS011;44385;51.992;4.206;2022-09-21T04:27:25;10.32;;;3.75;;
58615;SDS011;44385;51.992;4.206;2022-09-21T04:29:51;10.90;;;3.10;;
58615;SDS011;44385;51.992;4.206;2022-09-21T04:32:18;3.75;;;2.78;;
58615;SDS011;44385;51.992;4.206;2022-09-21T04:34:46;6.75;;;2.55;;
58615;SDS011;44385;51.992;4.206;2022-09-21T04:37:12;8.75;;;2.90;;
58615;SDS011;44385;51.992;4.206;2022-09-21T04:39:38;5.45;;;2.70;;
58615;SDS011;44385;51.992;4.206;2022-09-21T04:42:08;6.65;;;3.33;;
58615;SDS011;44385;51.992;4.206;2022-09-21T04:47:01;4.68;;;2.85;;
58615;SDS011;44385;51.992;4.206;2022-09-21T04:49:28;7.22;;;3.10;;
58615;SDS011;44385;51.992;4.206;2022-09-21T04:51:56;4.70;;;2.47;;
58615;SDS011;44385;51.992;4.206;2022-09-21T04:54:22;5.35;;;3.25;;
58615;SDS011;44385;51.992;4.206;2022-09-21T04:56:49;9.38;;;3.25;;
58615;SDS011;44385;51.992;4.206;2022-09-21T04:59:15;6.40;;;3.10;;
58615;SDS011;44385;51.992;4.206;2022-09-21T05:01:41;6.22;;;3.25;;
58615;SDS011;44385;51.992;4.206;2022-09-21T05:04:08;6.35;;;2.97;;
58615;SDS011;44385;51.992;4.206;2022-09-21T05:06:34;6.72;;;3.33;;
58615;SDS011;44385;51.992;4.206;2022-09-21T05:09:02;9.70;;;3.90;;
58615;SDS011;44385;51.992;4.206;2022-09-21T05:11:46;9.32;;;3.72;;
58615;SDS011;44385;51.992;4.206;2022-09-21T05:14:13;9.48;;;4.38;;
58615;SDS011;44385;51.992;4.206;2022-09-21T05:16:39;7.45;;;3.38;;
58615;SDS011;44385;51.992;4.206;2022-09-21T05:19:05;6.78;;;3.78;;
58615;SDS011;44385;51.992;4.206;2022-09-21T05:21:32;6.38;;;3.35;;
58615;SDS011;44385;51.992;4.206;2022-09-21T05:24:02;6.50;;;3.47;;
58615;SDS011;44385;51.992;4.206;2022-09-21T05:26:28;10.07;;;3.22;;
58615;SDS011;44385;51.992;4.206;2022-09-21T05:28:55;6.60;;;2.85;;
58615;SDS011;44385;51.992;4.206;2022-09-21T05:31:27;6.40;;;2.92;;
58615;SDS011;44385;51.992;4.206;2022-09-21T05:33:57;9.07;;;3.38;;
58615;SDS011;44385;51.992;4.206;2022-09-21T05:36:29;10.20;;;4.35;;
58615;SDS011;44385;51.992;4.206;2022-09-21T05:39:02;8.15;;;3.65;;
58615;SDS011;44385;51.992;4.206;2022-09-21T05:41:29;10.18;;;3.60;;
58615;SDS011;44385;51.992;4.206;2022-09-21T05:43:56;8.23;;;3.80;;
58615;SDS011;44385;51.992;4.206;2022-09-21T05:46:25;9.07;;;3.63;;
58615;SDS011;44385;51.992;4.206;2022-09-21T05:48:58;9.15;;;3.72;;
58615;SDS011;44385;51.992;4.206;2022-09-21T05:51:27;10.40;;;4.53;;
58615;SDS011;44385;51.992;4.206;2022-09-21T05:53:58;7.70;;;3.33;;
58615;SDS011;44385;51.992;4.206;2022-09-21T05:56:32;5.78;;;2.92;;
58615;SDS011;44385;51.992;4.206;2022-09-21T05:59:01;6.03;;;3.30;;
58615;SDS011;44385;51.992;4.206;2022-09-21T06:01:33;13.25;;;4.13;;
58615;SDS011;44385;51.992;4.206;2022-09-21T06:04:02;9.73;;;3.95;;
58615;SDS011;44385;51.992;4.206;2022-09-21T06:06:29;8.43;;;3.92;;
58615;SDS011;44385;51.992;4.206;2022-09-21T06:08:56;8.70;;;3.20;;
58615;SDS011;44385;51.992;4.206;2022-09-21T06:11:22;5.47;;;3.10;;
58615;SDS011;44385;51.992;4.206;2022-09-21T06:13:50;9.07;;;3.33;;
58615;SDS011;44385;51.992;4.206;2022-09-21T06:16:16;10.45;;;4.10;;
58615;SDS011;44385;51.992;4.206;2022-09-21T06:18:42;8.32;;;3.05;;
58615;SDS011;44385;51.992;4.206;2022-09-21T06:21:09;11.27;;;3.75;;
58615;SDS011;44385;51.992;4.206;2022-09-21T06:23:35;4.72;;;3.10;;
58615;SDS011;44385;51.992;4.206;2022-09-21T06:26:02;10.30;;;3.00;;
58615;SDS011;44385;51.992;4.206;2022-09-21T06:28:28;4.78;;;3.25;;
58615;SDS011;44385;51.992;4.206;2022-09-21T06:30:56;6.28;;;3.20;;
58615;SDS011;44385;51.992;4.206;2022-09-21T06:33:23;9.48;;;3.53;;
58615;SDS011;44385;51.992;4.206;2022-09-21T06:35:52;7.55;;;3.10;;
58615;SDS011;44385;51.992;4.206;2022-09-21T06:38:19;7.80;;;2.88;;
58615;SDS011;44385;51.992;4.206;2022-09-21T06:40:45;10.05;;;3.03;;
58615;SDS011;44385;51.992;4.206;2022-09-21T06:43:12;8.43;;;3.00;;
58615;SDS011;44385;51.992;4.206;2022-09-21T06:45:38;10.75;;;3.33;;
58615;SDS011;44385;51.992;4.206;2022-09-21T06:48:06;9.00;;;3.88;;
58615;SDS011;44385;51.992;4.206;2022-09-21T06:50:33;6.47;;;3.03;;
58615;SDS011;44385;51.992;4.206;2022-09-21T06:53:00;8.40;;;3.28;;
58615;SDS011;44385;51.992;4.206;2022-09-21T06:55:26;6.55;;;2.60;;
58615;SDS011;44385;51.992;4.206;2022-09-21T06:57:58;4.03;;;2.60;;
58615;SDS011;44385;51.992;4.206;2022-09-21T07:00:25;6.20;;;2.25;;
58615;SDS011;44385;51.992;4.206;2022-09-21T07:02:51;10.25;;;3.30;;
58615;SDS011;44385;51.992;4.206;2022-09-21T07:05:19;8.35;;;3.40;;
58615;SDS011;44385;51.992;4.206;2022-09-21T07:07:45;5.85;;;2.75;;
58615;SDS011;44385;51.992;4.206;2022-09-21T07:10:12;5.18;;;2.58;;
58615;SDS011;44385;51.992;4.206;2022-09-21T07:12:38;7.72;;;2.75;;
58615;SDS011;44385;51.992;4.206;2022-09-21T07:15:06;10.55;;;3.40;;
58615;SDS011;44385;51.992;4.206;2022-09-21T07:17:32;10.10;;;3.80;;
58615;SDS011;44385;51.992;4.206;2022-09-21T07:19:59;5.80;;;3.65;;
58615;SDS011;44385;51.992;4.206;2022-09-21T07:22:28;8.68;;;3.40;;
58615;SDS011;44385;51.992;4.206;2022-09-21T07:24:55;10.48;;;3.80;;
58615;SDS011;44385;51.992;4.206;2022-09-21T07:27:21;34.35;;;8.35;;
58615;SDS011;44385;51.992;4.206;2022-09-21T07:29:48;32.45;;;6.20;;
58615;SDS011;44385;51.992;4.206;2022-09-21T07:32:14;18.50;;;4.50;;
58615;SDS011;44385;51.992;4.206;2022-09-21T07:34:41;15.80;;;4.45;;
58615;SDS011;44385;51.992;4.206;2022-09-21T07:37:07;10.50;;;4.20;;
58615;SDS011;44385;51.992;4.206;2022-09-21T07:39:35;10.98;;;3.47;;
58615;SDS011;44385;51.992;4.206;2022-09-21T07:42:02;12.05;;;4.25;;
58615;SDS011;44385;51.992;4.206;2022-09-21T07:44:29;13.15;;;3.80;;
58615;SDS011;44385;51.992;4.206;2022-09-21T07:46:56;11.73;;;4.07;;
58615;SDS011;44385;51.992;4.206;2022-09-21T07:49:22;17.92;;;4.22;;
58615;SDS011;44385;51.992;4.206;2022-09-21T07:51:48;23.13;;;4.90;;
58615;SDS011;44385;51.992;4.206;2022-09-21T07:54:15;21.45;;;5.25;;
58615;SDS011;44385;51.992;4.206;2022-09-21T07:56:42;14.40;;;4.60;;
58615;SDS011;44385;51.992;4.206;2022-09-21T08:01:59;15.30;;;3.53;;
58615;SDS011;44385;51.992;4.206;2022-09-21T08:04:25;13.77;;;3.20;;
58615;SDS011;44385;51.992;4.206;2022-09-21T08:06:51;6.20;;;2.10;;
58615;SDS011;44385;51.992;4.206;2022-09-21T08:09:18;8.07;;;2.90;;
58615;SDS011;44385;51.992;4.206;2022-09-21T08:11:45;8.50;;;2.67;;
58615;SDS011;44385;51.992;4.206;2022-09-21T08:14:12;5.00;;;2.20;;
58615;SDS011;44385;51.992;4.206;2022-09-21T08:16:43;5.70;;;2.53;;
58615;SDS011;44385;51.992;4.206;2022-09-21T08:19:10;5.28;;;2.85;;
58615;SDS011;44385;51.992;4.206;2022-09-21T08:21:36;8.23;;;3.13;;
58615;SDS011;44385;51.992;4.206;2022-09-21T08:24:03;10.93;;;3.80;;
58615;SDS011;44385;51.992;4.206;2022-09-21T08:26:29;8.10;;;3.75;;
58615;SDS011;44385;51.992;4.206;2022-09-21T08:28:57;14.52;;;3.45;;
58615;SDS011;44385;51.992;4.206;2022-09-21T08:31:24;7.25;;;3.67;;
58615;SDS011;44385;51.992;4.206;2022-09-21T08:33:50;10.25;;;3.28;;
58615;SDS011;44385;51.992;4.206;2022-09-21T08:36:17;12.07;;;3.50;;
58615;SDS011;44385;51.992;4.206;2022-09-21T08:38:44;9.55;;;3.33;;
58615;SDS011;44385;51.992;4.206;2022-09-21T08:41:13;8.27;;;3.15;;
58615;SDS011;44385;51.992;4.206;2022-09-21T08:43:41;12.07;;;3.20;;
58615;SDS011;44385;51.992;4.206;2022-09-21T08:46:10;7.20;;;3.22;;
58615;SDS011;44385;51.992;4.206;2022-09-21T08:51:04;9.68;;;2.63;;
58615;SDS011;44385;51.992;4.206;2022-09-21T08:53:34;7.07;;;2.70;;
58615;SDS011;44385;51.992;4.206;2022-09-21T08:56:01;12.73;;;2.72;;
58615;SDS011;44385;51.992;4.206;2022-09-21T08:58:28;12.25;;;3.35;;
58615;SDS011;44385;51.992;4.206;2022-09-21T09:00:59;12.57;;;2.90;;
58615;SDS011;44385;51.992;4.206;2022-09-21T09:03:31;13.18;;;3.90;;
58615;SDS011;44385;51.992;4.206;2022-09-21T09:06:00;8.45;;;3.00;;
58615;SDS011;44385;51.992;4.206;2022-09-21T09:08:38;15.25;;;3.50;;
58615;SDS011;44385;51.992;4.206;2022-09-21T09:11:10;9.00;;;3.20;;
58615;SDS011;44385;51.992;4.206;2022-09-21T09:13:53;12.43;;;2.85;;
58615;SDS011;44385;51.992;4.206;2022-09-21T09:16:26;6.97;;;2.85;;
58615;SDS011;44385;51.992;4.206;2022-09-21T09:18:56;10.02;;;2.97;;
58615;SDS011;44385;51.992;4.206;2022-09-21T09:21:26;6.97;;;2.60;;
58615;SDS011;44385;51.992;4.206;2022-09-21T09:23:55;5.65;;;2.42;;
58615;SDS011;44385;51.992;4.206;2022-09-21T09:26:26;6.88;;;1.73;;
58615;SDS011;44385;51.992;4.206;2022-09-21T09:28:55;8.32;;;2.20;;
58615;SDS011;44385;51.992;4.206;2022-09-21T09:31:23;3.63;;;1.95;;
58615;SDS011;44385;51.992;4.206;2022-09-21T09:33:53;6.03;;;2.25;;
58615;SDS011;44385;51.992;4.206;2022-09-21T09:36:23;4.88;;;1.90;;
58615;SDS011;44385;51.992;4.206;2022-09-21T09:38:51;6.20;;;1.90;;
58615;SDS011;44385;51.992;4.206;2022-09-21T09:41:27;10.70;;;2.45;;
58615;SDS011;44385;51.992;4.206;2022-09-21T09:44:01;5.80;;;2.25;;
58615;SDS011;44385;51.992;4.206;2022-09-21T09:46:30;9.55;;;2.35;;
58615;SDS011;44385;51.992;4.206;2022-09-21T09:49:03;5.93;;;2.55;;
58615;SDS011;44385;51.992;4.206;2022-09-21T09:51:34;8.75;;;2.15;;
58615;SDS011;44385;51.992;4.206;2022-09-21T09:54:04;6.25;;;2.30;;
58615;SDS011;44385;51.992;4.206;2022-09-21T09:56:32;5.15;;;1.88;;
58615;SDS011;44385;51.992;4.206;2022-09-21T09:58:59;4.57;;;2.00;;
58615;SDS011;44385;51.992;4.206;2022-09-21T10:01:36;7.97;;;1.80;;
58615;SDS011;44385;51.992;4.206;2022-09-21T10:04:03;6.93;;;2.28;;
58615;SDS011;44385;51.992;4.206;2022-09-21T10:06:33;5.53;;;2.38;;
58615;SDS011;44385;51.992;4.206;2022-09-21T10:09:00;7.40;;;2.20;;
58615;SDS011;44385;51.992;4.206;2022-09-21T10:11:33;12.80;;;2.67;;
58615;SDS011;44385;51.992;4.206;2022-09-21T10:14:08;9.85;;;1.90;;
58615;SDS011;44385;51.992;4.206;2022-09-21T10:16:38;7.28;;;1.98;;
58615;SDS011;44385;51.992;4.206;2022-09-21T10:19:12;6.78;;;1.80;;
58615;SDS011;44385;51.992;4.206;2022-09-21T10:21:41;18.27;;;2.28;;
58615;SDS011;44385;51.992;4.206;2022-09-21T10:24:14;5.38;;;1.98;;
58615;SDS011;44385;51.992;4.206;2022-09-21T10:26:41;4.10;;;2.13;;
58615;SDS011;44385;51.992;4.206;2022-09-21T10:29:16;5.60;;;2.13;;
58615;SDS011;44385;51.992;4.206;2022-09-21T10:31:52;6.90;;;2.28;;
58615;SDS011;44385;51.992;4.206;2022-09-21T10:34:19;5.47;;;1.95;;
58615;SDS011;44385;51.992;4.206;2022-09-21T10:36:49;6.32;;;2.25;;
58615;SDS011;44385;51.992;4.206;2022-09-21T10:39:17;8.38;;;2.78;;
58615;SDS011;44385;51.992;4.206;2022-09-21T10:41:46;8.75;;;2.30;;
58615;SDS011;44385;51.992;4.206;2022-09-21T10:44:13;9.70;;;3.13;;
58615;SDS011;44385;51.992;4.206;2022-09-21T10:46:40;4.47;;;1.90;;
58615;SDS011;44385;51.992;4.206;2022-09-21T10:49:11;5.50;;;1.42;;
58615;SDS011;44385;51.992;4.206;2022-09-21T10:51:38;7.93;;;2.40;;
58615;SDS011;44385;51.992;4.206;2022-09-21T10:54:07;9.07;;;2.83;;
58615;SDS011;44385;51.992;4.206;2022-09-21T10:56:34;3.22;;;1.92;;
58615;SDS011;44385;51.992;4.206;2022-09-21T10:59:11;8.02;;;2.40;;
58615;SDS011;44385;51.992;4.206;2022-09-21T11:01:41;7.68;;;2.10;;
58615;SDS011;44385;51.992;4.206;2022-09-21T11:04:08;7.95;;;1.60;;
58615;SDS011;44385;51.992;4.206;2022-09-21T11:06:38;6.90;;;1.98;;
58615;SDS011;44385;51.992;4.206;2022-09-21T11:09:07;6.83;;;1.47;;
58615;SDS011;44385;51.992;4.206;2022-09-21T11:11:38;6.53;;;1.70;;
58615;SDS011;44385;51.992;4.206;2022-09-21T11:14:09;5.90;;;1.60;;
58615;SDS011;44385;51.992;4.206;2022-09-21T11:16:39;5.25;;;1.65;;
58615;SDS011;44385;51.992;4.206;2022-09-21T11:19:09;3.08;;;1.35;;
58615;SDS011;44385;51.992;4.206;2022-09-21T11:21:40;5.40;;;1.38;;
58615;SDS011;44385;51.992;4.206;2022-09-21T11:24:10;4.53;;;1.50;;
58615;SDS011;44385;51.992;4.206;2022-09-21T11:26:43;6.22;;;2.08;;
58615;SDS011;44385;51.992;4.206;2022-09-21T11:29:11;6.35;;;1.50;;
58615;SDS011;44385;51.992;4.206;2022-09-21T11:31:42;7.97;;;2.15;;
58615;SDS011;44385;51.992;4.206;2022-09-21T11:34:15;8.95;;;2.00;;
58615;SDS011;44385;51.992;4.206;2022-09-21T11:36:45;6.72;;;1.83;;
58615;SDS011;44385;51.992;4.206;2022-09-21T11:39:20;5.20;;;1.92;;
58615;SDS011;44385;51.992;4.206;2022-09-21T11:41:56;3.45;;;1.83;;
58615;SDS011;44385;51.992;4.206;2022-09-21T11:44:29;2.28;;;1.30;;
58615;SDS011;44385;51.992;4.206;2022-09-21T11:47:02;6.22;;;1.80;;
58615;SDS011;44385;51.992;4.206;2022-09-21T11:49:37;12.43;;;1.95;;
58615;SDS011;44385;51.992;4.206;2022-09-21T11:52:08;8.55;;;2.45;;
58615;SDS011;44385;51.992;4.206;2022-09-21T11:54:41;7.13;;;2.10;;
58615;SDS011;44385;51.992;4.206;2022-09-21T11:57:14;5.18;;;1.55;;
58615;SDS011;44385;51.992;4.206;2022-09-21T11:59:48;4.55;;;1.40;;
58615;SDS011;44385;51.992;4.206;2022-09-21T12:02:27;3.88;;;1.65;;
58615;SDS011;44385;51.992;4.206;2022-09-21T12:04:56;8.43;;;1.80;;
58615;SDS011;44385;51.992;4.206;2022-09-21T12:07:30;10.13;;;1.98;;
58615;SDS011;44385;51.992;4.206;2022-09-21T12:10:04;6.30;;;2.35;;
58615;SDS011;44385;51.992;4.206;2022-09-21T12:12:35;8.18;;;2.03;;
58615;SDS011;44385;51.992;4.206;2022-09-21T12:15:04;6.32;;;1.80;;
58615;SDS011;44385;51.992;4.206;2022-09-21T12:17:37;5.82;;;1.77;;
58615;SDS011;44385;51.992;4.206;2022-09-21T12:20:09;5.50;;;2.00;;
58615;SDS011;44385;51.992;4.206;2022-09-21T12:22:37;7.65;;;2.17;;
58615;SDS011;44385;51.992;4.206;2022-09-21T12:25:11;5.45;;;1.70;;
58615;SDS011;44385;51.992;4.206;2022-09-21T12:27:40;5.32;;;1.55;;
58615;SDS011;44385;51.992;4.206;2022-09-21T12:30:10;5.78;;;1.65;;
58615;SDS011;44385;51.992;4.206;2022-09-21T12:35:04;5.63;;;1.58;;
58615;SDS011;44385;51.992;4.206;2022-09-21T12:37:32;3.20;;;1.35;;
58615;SDS011;44385;51.992;4.206;2022-09-21T12:40:04;6.28;;;1.95;;
58615;SDS011;44385;51.992;4.206;2022-09-21T12:42:33;4.47;;;1.45;;
58615;SDS011;44385;51.992;4.206;2022-09-21T12:45:03;5.72;;;1.65;;
58615;SDS011;44385;51.992;4.206;2022-09-21T12:47:40;3.05;;;1.75;;
58615;SDS011;44385;51.992;4.206;2022-09-21T12:50:15;4.88;;;1.50;;
58615;SDS011;44385;51.992;4.206;2022-09-21T12:52:45;2.47;;;1.40;;
58615;SDS011;44385;51.992;4.206;2022-09-21T12:55:16;5.93;;;1.40;;
58615;SDS011;44385;51.992;4.206;2022-09-21T12:57:48;2.80;;;1.33;;
58615;SDS011;44385;51.992;4.206;2022-09-21T13:00:17;12.57;;;7.82;;
58615;SDS011;44385;51.992;4.206;2022-09-21T13:02:47;6.10;;;1.92;;
58615;SDS011;44385;51.992;4.206;2022-09-21T13:05:19;7.15;;;1.95;;
58615;SDS011;44385;51.992;4.206;2022-09-21T13:07:57;6.40;;;2.08;;
58615;SDS011;44385;51.992;4.206;2022-09-21T13:10:36;9.77;;;2.10;;
58615;SDS011;44385;51.992;4.206;2022-09-21T13:15:41;2.83;;;1.45;;
58615;SDS011;44385;51.992;4.206;2022-09-21T13:18:14;6.30;;;2.05;;
58615;SDS011;44385;51.992;4.206;2022-09-21T13:20:42;6.53;;;1.70;;
58615;SDS011;44385;51.992;4.206;2022-09-21T13:23:12;2.90;;;1.60;;
58615;SDS011;44385;51.992;4.206;2022-09-21T13:25:40;2.97;;;1.55;;
58615;SDS011;44385;51.992;4.206;2022-09-21T13:28:17;4.53;;;1.08;;
58615;SDS011;44385;51.992;4.206;2022-09-21T13:30:46;7.25;;;1.92;;
58615;SDS011;44385;51.992;4.206;2022-09-21T13:33:29;3.78;;;1.25;;
58615;SDS011;44385;51.992;4.206;2022-09-21T13:38:56;5.88;;;1.27;;
58615;SDS011;44385;51.992;4.206;2022-09-21T13:41:23;1.70;;;1.17;;
58615;SDS011;44385;51.992;4.206;2022-09-21T13:43:59;4.05;;;1.73;;
58615;SDS011;44385;51.992;4.206;2022-09-21T13:46:45;6.88;;;1.70;;
58615;SDS011;44385;51.992;4.206;2022-09-21T13:49:14;2.92;;;1.33;;
58615;SDS011;44385;51.992;4.206;2022-09-21T13:51:48;3.70;;;1.40;;
58615;SDS011;44385;51.992;4.206;2022-09-21T13:54:15;4.90;;;1.92;;
58615;SDS011;44385;51.992;4.206;2022-09-21T13:56:43;4.60;;;1.25;;
58615;SDS011;44385;51.992;4.206;2022-09-21T13:59:14;6.60;;;1.50;;
58615;SDS011;44385;51.992;4.206;2022-09-21T14:01:41;4.85;;;1.33;;
58615;SDS011;44385;51.992;4.206;2022-09-21T14:04:16;4.50;;;1.52;;
58615;SDS011;44385;51.992;4.206;2022-09-21T14:06:44;6.28;;;1.80;;
58615;SDS011;44385;51.992;4.206;2022-09-21T14:11:39;3.03;;;1.75;;
58615;SDS011;44385;51.992;4.206;2022-09-21T14:14:07;6.75;;;1.83;;
58615;SDS011;44385;51.992;4.206;2022-09-21T14:16:48;3.17;;;1.63;;
58615;SDS011;44385;51.992;4.206;2022-09-21T14:27:44;9.40;;;2.03;;
58615;SDS011;44385;51.992;4.206;2022-09-21T14:30:15;8.48;;;1.50;;
58615;SDS011;44385;51.992;4.206;2022-09-21T14:32:44;6.82;;;1.80;;
58615;SDS011;44385;51.992;4.206;2022-09-21T14:35:12;8.10;;;1.90;;
58615;SDS011;44385;51.992;4.206;2022-09-21T14:37:41;7.82;;;1.77;;
58615;SDS011;44385;51.992;4.206;2022-09-21T14:40:15;5.95;;;1.60;;
58615;SDS011;44385;51.992;4.206;2022-09-21T14:42:45;4.20;;;1.08;;
58615;SDS011;44385;51.992;4.206;2022-09-21T14:45:13;7.07;;;1.65;;
58615;SDS011;44385;51.992;4.206;2022-09-21T14:50:28;4.57;;;1.30;;
58615;SDS011;44385;51.992;4.206;2022-09-21T14:53:02;5.85;;;1.30;;
58615;SDS011;44385;51.992;4.206;2022-09-21T14:55:41;4.45;;;1.80;;
58615;SDS011;44385;51.992;4.206;2022-09-21T14:58:23;5.50;;;1.60;;
58615;SDS011;44385;51.992;4.206;2022-09-21T15:00:52;6.40;;;1.60;;
58615;SDS011;44385;51.992;4.206;2022-09-21T15:03:30;6.25;;;1.67;;
58615;SDS011;44385;51.992;4.206;2022-09-21T15:06:02;3.65;;;1.15;;
58615;SDS011;44385;51.992;4.206;2022-09-21T15:08:52;2.30;;;1.17;;
58615;SDS011;44385;51.992;4.206;2022-09-21T15:11:41;4.57;;;1.35;;
58615;SDS011;44385;51.992;4.206;2022-09-21T15:14:14;4.03;;;1.20;;
58615;SDS011;44385;51.992;4.206;2022-09-21T15:16:43;4.65;;;1.10;;
58615;SDS011;44385;51.992;4.206;2022-09-21T15:19:14;5.03;;;1.38;;
58615;SDS011;44385;51.992;4.206;2022-09-21T15:21:46;3.80;;;1.42;;
58615;SDS011;44385;51.992;4.206;2022-09-21T15:24:16;6.47;;;1.67;;
58615;SDS011;44385;51.992;4.206;2022-09-21T15:26:43;2.90;;;1.25;;
58615;SDS011;44385;51.992;4.206;2022-09-21T15:29:15;7.50;;;1.77;;
58615;SDS011;44385;51.992;4.206;2022-09-21T15:31:46;10.02;;;2.05;;
58615;SDS011;44385;51.992;4.206;2022-09-21T15:34:13;5.93;;;1.67;;
58615;SDS011;44385;51.992;4.206;2022-09-21T15:36:41;4.90;;;1.50;;
58615;SDS011;44385;51.992;4.206;2022-09-21T15:39:18;2.15;;;1.33;;